Time;durP1;ratioP1;P1;durP2;ratioP2;P2;SDS_P1;SDS_P2;PMS_P1;PMS_P2;Temp;Humidity;BMP_temperature;BMP_pressure;BME280_temperature;BME280_humidity;BME280_pressure;Samples;Min_cycle;Max_cycle;Signal;HPM_P1;HPM_P2
2021/04/14 00:01:55;;;;;;;;;;;0.20;99.90;;;;;;5034192;28;19951;-72
2021/04/14 00:04:21;;;;;;;;;;;0.20;99.90;;;;;;5033160;28;19989;-71
2021/04/14 00:06:47;;;;;;;;;;;0.20;99.90;;;;;;5033578;28;20572;-72
2021/04/14 00:09:12;;;;;;;;;;;0.10;99.90;;;;;;5031503;28;19917;-71
2021/04/14 00:11:38;;;;;;;;;;;0.10;99.90;;;;;;5033002;28;19912;-72
2021/04/14 00:14:05;;;;;;;;;;;0.10;99.90;;;;;;5032945;28;20290;-73
2021/04/14 00:16:30;;;;;;;;;;;0.10;99.90;;;;;;5033491;28;20008;-72
2021/04/14 00:18:56;;;;;;;;;;;0.10;99.90;;;;;;5032566;28;20011;-72
2021/04/14 00:21:22;;;;;;;;;;;0.00;99.90;;;;;;5032825;28;19908;-72
2021/04/14 00:23:48;;;;;;;;;;;0.00;99.90;;;;;;5031856;28;19952;-73
2021/04/14 00:26:15;;;;;;;;;;;0.00;99.90;;;;;;5032519;28;20252;-71
2021/04/14 00:28:41;;;;;;;;;;;-0.10;99.90;;;;;;5033005;28;19905;-73
2021/04/14 00:31:07;;;;;;;;;;;-0.10;99.90;;;;;;5033142;28;19912;-73
2021/04/14 00:33:33;;;;;;;;;;;-0.10;99.90;;;;;;5031348;28;20280;-73
2021/04/14 00:35:58;;;;;;;;;;;-0.20;99.90;;;;;;5032771;28;19909;-73
2021/04/14 00:38:24;;;;;;;;;;;-0.20;99.90;;;;;;5032489;28;19943;-72
2021/04/14 00:40:54;;;;;;;;;;;-0.20;99.90;;;;;;5032801;28;19912;-72
2021/04/14 00:43:20;;;;;;;;;;;-0.20;99.90;;;;;;5032178;28;19959;-73
2021/04/14 00:45:46;;;;;;;;;;;-0.20;99.90;;;;;;5032719;28;19905;-72
2021/04/14 00:48:12;;;;;;;;;;;-0.20;99.90;;;;;;5031580;28;19905;-72
2021/04/14 00:50:38;;;;;;;;;;;-0.20;99.90;;;;;;5031503;28;19905;-70
2021/04/14 00:53:05;;;;;;;;;;;-0.20;99.90;;;;;;5031885;28;19905;-73
2021/04/14 00:55:31;;;;;;;;;;;-0.20;99.90;;;;;;5033077;28;19916;-72
2021/04/14 00:57:57;;;;;;;;;;;-0.30;99.90;;;;;;5033140;28;19913;-70
2021/04/14 01:00:34;;;;;;;;;;;-0.30;99.90;;;;;;5032525;28;19912;-73
2021/04/14 01:03:00;;;;;;;;;;;-0.30;99.90;;;;;;5031599;28;20381;-72
2021/04/14 01:05:27;;;;;;;;;;;-0.40;99.90;;;;;;5031879;28;19951;-73
2021/04/14 01:07:52;;;;;;;;;;;-0.40;99.90;;;;;;5031855;28;19905;-73
2021/04/14 01:10:19;;;;;;;;;;;-0.50;99.90;;;;;;5032300;28;19971;-73
2021/04/14 01:12:44;;;;;;;;;;;-0.50;99.90;;;;;;5031576;28;19911;-73
2021/04/14 01:15:11;;;;;;;;;;;-0.40;99.90;;;;;;5032047;28;19905;-72
2021/04/14 01:17:37;;;;;;;;;;;-0.50;99.90;;;;;;5032035;28;20009;-72
2021/04/14 01:20:04;;;;;;;;;;;-0.50;99.90;;;;;;5032188;28;19995;-73
2021/04/14 01:22:29;;;;;;;;;;;-0.50;99.90;;;;;;5029231;28;19940;-71
2021/04/14 01:24:55;;;;;;;;;;;-0.50;99.90;;;;;;5030026;28;19909;-73
2021/04/14 01:27:20;;;;;;;;;;;-0.50;99.90;;;;;;5030606;28;19929;-74
2021/04/14 01:29:46;;;;;;;;;;;-0.60;99.90;;;;;;5031531;28;19912;-71
2021/04/14 01:32:11;;;;;;;;;;;-0.60;99.90;;;;;;5032263;28;19944;-73
2021/04/14 01:34:37;;;;;;;;;;;-0.60;99.90;;;;;;5031408;28;19909;-72
2021/04/14 01:37:02;;;;;;;;;;;-0.60;99.90;;;;;;5031954;28;19909;-72
2021/04/14 01:39:28;;;;;;;;;;;-0.60;99.90;;;;;;5031723;28;19909;-71
2021/04/14 01:41:53;;;;;;;;;;;-0.60;99.90;;;;;;5031890;28;19913;-73
2021/04/14 01:44:19;;;;;;;;;;;-0.70;99.90;;;;;;5031249;28;19916;-72
2021/04/14 01:46:44;;;;;;;;;;;-0.70;99.90;;;;;;5030599;28;20286;-72
2021/04/14 01:49:10;;;;;;;;;;;-0.70;99.90;;;;;;5031970;28;20300;-73
2021/04/14 01:51:36;;;;;;;;;;;-0.80;99.90;;;;;;5031629;28;19952;-72
2021/04/14 01:54:03;;;;;;;;;;;-0.80;99.90;;;;;;5030915;28;19913;-73
2021/04/14 01:56:28;;;;;;;;;;;-0.70;99.90;;;;;;5031876;28;19959;-72
2021/04/14 01:58:54;;;;;;;;;;;-0.70;99.90;;;;;;5031834;28;19909;-73
2021/04/14 02:01:19;;;;;;;;;;;-0.80;99.90;;;;;;5031977;28;19909;-74
2021/04/14 02:03:46;;;;;;;;;;;-0.80;99.90;;;;;;5029692;28;19909;-71
2021/04/14 02:06:13;;;;;;;;;;;-0.80;99.90;;;;;;5031565;28;20348;-72
2021/04/14 02:08:39;;;;;;;;;;;-0.90;99.90;;;;;;5031345;28;19917;-72
2021/04/14 02:11:05;;;;;;;;;;;-0.90;99.90;;;;;;5030399;28;20003;-71
2021/04/14 02:13:32;;;;;;;;;;;-0.80;99.90;;;;;;5030746;28;20374;-73
2021/04/14 02:15:59;;;;;;;;;;;-0.90;99.90;;;;;;5031269;28;19909;-72
2021/04/14 02:18:25;;;;;;;;;;;-0.90;99.90;;;;;;5034267;28;19967;-73
2021/04/14 02:20:50;;;;;;;;;;;-0.80;99.90;;;;;;5035434;28;19905;-73
2021/04/14 02:23:20;;;;;;;;;;;-0.90;99.90;;;;;;5034361;28;19916;-72
2021/04/14 02:25:46;;;;;;;;;;;-0.90;99.90;;;;;;5035726;28;19905;-73
2021/04/14 02:28:12;;;;;;;;;;;-0.90;99.90;;;;;;5035175;28;19905;-74
2021/04/14 02:30:37;;;;;;;;;;;-0.90;99.90;;;;;;5035398;28;19909;-72
2021/04/14 02:33:04;;;;;;;;;;;-0.90;99.90;;;;;;5034784;28;19905;-72
2021/04/14 02:35:30;;;;;;;;;;;-1.00;99.90;;;;;;5035062;28;19912;-71
2021/04/14 02:37:56;;;;;;;;;;;-0.90;99.90;;;;;;5033601;28;19909;-72
2021/04/14 02:40:21;;;;;;;;;;;-1.00;99.90;;;;;;5035255;28;19940;-72
2021/04/14 02:42:47;;;;;;;;;;;-0.90;99.90;;;;;;5034961;28;19915;-71
2021/04/14 02:45:13;;;;;;;;;;;-0.90;99.90;;;;;;5035818;28;19991;-73
2021/04/14 02:47:39;;;;;;;;;;;-1.00;99.90;;;;;;5037234;28;20406;-72
2021/04/14 02:50:06;;;;;;;;;;;-1.00;99.90;;;;;;5036037;28;19909;-71
2021/04/14 02:52:31;;;;;;;;;;;-1.10;99.90;;;;;;5035864;28;19932;-71
2021/04/14 02:54:57;;;;;;;;;;;-1.10;99.90;;;;;;5034036;28;19909;-72
2021/04/14 02:57:23;;;;;;;;;;;-1.20;99.90;;;;;;5035108;28;20011;-72
2021/04/14 02:59:48;;;;;;;;;;;-1.20;99.90;;;;;;5036350;28;19944;-72
2021/04/14 03:02:14;;;;;;;;;;;-1.10;99.90;;;;;;5036031;28;19905;-73
2021/04/14 03:04:39;;;;;;;;;;;-1.20;99.90;;;;;;5030248;28;19913;-72
2021/04/14 03:07:05;;;;;;;;;;;-1.20;99.90;;;;;;5014904;28;19936;-72
2021/04/14 03:09:30;;;;;;;;;;;-1.20;99.90;;;;;;5014402;28;20368;-73
2021/04/14 03:11:56;;;;;;;;;;;-1.20;99.90;;;;;;5014980;28;19905;-73
2021/04/14 03:14:21;;;;;;;;;;;-1.30;99.90;;;;;;5014102;28;19906;-72
2021/04/14 03:16:47;;;;;;;;;;;-1.30;99.90;;;;;;5014562;28;19910;-73
2021/04/14 03:19:12;;;;;;;;;;;-1.30;99.90;;;;;;5014681;28;20387;-72
2021/04/14 03:21:38;;;;;;;;;;;-1.40;99.90;;;;;;5014692;28;19913;-72
2021/04/14 03:24:04;;;;;;;;;;;-1.30;99.90;;;;;;5014213;28;19932;-71
2021/04/14 03:26:29;;;;;;;;;;;-1.40;99.90;;;;;;5014443;28;19932;-73
2021/04/14 03:28:55;;;;;;;;;;;-1.30;99.90;;;;;;5013717;28;19905;-72
2021/04/14 03:31:20;;;;;;;;;;;-1.30;99.90;;;;;;5013281;28;19956;-73
2021/04/14 03:33:46;;;;;;;;;;;-1.40;99.90;;;;;;5013973;28;19910;-73
2021/04/14 03:36:12;;;;;;;;;;;-1.40;99.90;;;;;;5031854;28;19905;-71
2021/04/14 03:38:37;;;;;;;;;;;-1.40;99.90;;;;;;5034089;28;19913;-71
2021/04/14 03:41:03;;;;;;;;;;;-1.30;99.90;;;;;;5034313;28;19905;-72
2021/04/14 03:43:29;;;;;;;;;;;-1.40;99.90;;;;;;5033551;28;19905;-71
2021/04/14 03:45:59;;;;;;;;;;;-1.40;99.90;;;;;;5033983;28;19909;-72
2021/04/14 03:48:25;;;;;;;;;;;-1.40;99.90;;;;;;5033734;28;20382;-72
2021/04/14 03:50:51;;;;;;;;;;;-1.40;99.90;;;;;;5034147;28;20332;-72
2021/04/14 03:53:26;;;;;;;;;;;-1.50;99.90;;;;;;5031643;28;20007;-73
2021/04/14 03:56:10;;;;;;;;;;;-1.50;99.90;;;;;;5033973;28;19905;-73
2021/04/14 03:58:36;;;;;;;;;;;-1.60;99.90;;;;;;5033729;28;19909;-71
2021/04/14 04:01:04;;;;;;;;;;;-1.60;99.90;;;;;;5033525;28;19905;-71
2021/04/14 04:03:30;;;;;;;;;;;-1.60;99.90;;;;;;5032901;28;19905;-72
2021/04/14 04:05:56;;;;;;;;;;;-1.60;99.90;;;;;;5033311;28;19920;-72
2021/04/14 04:08:22;;;;;;;;;;;-1.70;99.90;;;;;;5032071;28;19905;-72
2021/04/14 04:10:47;;;;;;;;;;;-1.60;99.90;;;;;;5033485;28;19913;-73
2021/04/14 04:13:14;;;;;;;;;;;-1.70;99.90;;;;;;5032768;28;19905;-72
2021/04/14 04:15:40;;;;;;;;;;;-1.60;99.90;;;;;;5032696;28;19995;-73
2021/04/14 04:18:06;;;;;;;;;;;-1.60;99.90;;;;;;5033067;28;19996;-73
2021/04/14 04:20:32;;;;;;;;;;;-1.60;99.90;;;;;;5033223;28;19905;-71
2021/04/14 04:22:58;;;;;;;;;;;-1.50;99.90;;;;;;5030530;28;19967;-71
2021/04/14 04:25:24;;;;;;;;;;;-1.60;99.90;;;;;;5033176;28;20346;-73
2021/04/14 04:27:49;;;;;;;;;;;-1.60;99.90;;;;;;5031286;28;19905;-72
2021/04/14 04:30:15;;;;;;;;;;;-1.60;99.90;;;;;;5032310;28;20353;-71
2021/04/14 04:32:41;;;;;;;;;;;-1.60;99.90;;;;;;5032130;28;20399;-71
2021/04/14 04:35:07;;;;;;;;;;;-1.60;99.90;;;;;;5031520;28;20015;-71
2021/04/14 04:37:33;;;;;;;;;;;-1.60;99.90;;;;;;5031317;28;19909;-71
2021/04/14 04:39:58;;;;;;;;;;;-1.60;99.90;;;;;;5032154;28;20402;-72
2021/04/14 04:42:24;;;;;;;;;;;-1.60;99.90;;;;;;5025068;28;19909;-70
2021/04/14 04:44:50;;;;;;;;;;;-1.60;99.90;;;;;;5030241;28;19909;-72
2021/04/14 04:47:15;;;;;;;;;;;-1.60;99.90;;;;;;5032558;28;19905;-71
2021/04/14 04:49:41;;;;;;;;;;;-1.50;99.90;;;;;;5044161;28;19905;-70
2021/04/14 04:52:06;;;;;;;;;;;-1.50;99.90;;;;;;5052581;28;20590;-72
2021/04/14 04:54:32;;;;;;;;;;;-1.50;99.90;;;;;;5051090;28;20386;-71
2021/04/14 04:56:58;;;;;;;;;;;-1.50;99.90;;;;;;5052924;28;19908;-71
2021/04/14 04:59:24;;;;;;;;;;;-1.40;99.90;;;;;;5052801;28;20002;-71
2021/04/14 05:01:51;;;;;;;;;;;-1.40;99.90;;;;;;5040266;28;19912;-71
2021/04/14 05:04:17;;;;;;;;;;;-1.40;99.90;;;;;;5031181;28;20635;-70
2021/04/14 05:06:42;;;;;;;;;;;-1.30;99.90;;;;;;5032269;28;19991;-71
2021/04/14 05:09:08;;;;;;;;;;;-1.40;99.90;;;;;;5031886;28;19912;-70
2021/04/14 05:11:33;;;;;;;;;;;-1.30;99.90;;;;;;5032385;28;19981;-71
2021/04/14 05:13:59;;;;;;;;;;;-1.30;99.90;;;;;;5031372;28;19964;-71
2021/04/14 05:16:25;;;;;;;;;;;-1.20;99.90;;;;;;5031686;28;19909;-71
2021/04/14 05:18:51;;;;;;;;;;;-1.20;99.90;;;;;;5031762;28;20382;-70
2021/04/14 05:21:17;;;;;;;;;;;-1.10;99.90;;;;;;5031961;28;19931;-71
2021/04/14 05:23:42;;;;;;;;;;;-1.10;99.90;;;;;;5031194;28;19905;-71
2021/04/14 05:26:08;;;;;;;;;;;-1.00;99.90;;;;;;5031638;28;19912;-71
2021/04/14 05:28:34;;;;;;;;;;;-1.00;99.90;;;;;;5031924;28;20285;-72
2021/04/14 05:31:00;;;;;;;;;;;-0.90;99.90;;;;;;5032433;28;19905;-70
2021/04/14 05:33:25;;;;;;;;;;;-0.60;99.90;;;;;;5029696;28;19909;-71
2021/04/14 05:35:52;;;;;;;;;;;-0.80;99.90;;;;;;5031358;28;19905;-70
2021/04/14 05:38:18;;;;;;;;;;;-0.80;99.90;;;;;;5042734;28;19955;-71
2021/04/14 05:40:43;;;;;;;;;;;-0.70;99.90;;;;;;5051784;28;19959;-70
2021/04/14 05:43:27;;;;;;;;;;;-0.60;99.90;;;;;;5051321;28;19909;-71
2021/04/14 05:45:56;;;;;;;;;;;-0.60;99.90;;;;;;5051219;28;19909;-72
2021/04/14 05:48:22;;;;;;;;;;;-0.60;99.90;;;;;;5051867;28;20375;-72
2021/04/14 05:50:48;;;;;;;;;;;-0.60;99.90;;;;;;5051844;28;20031;-71
2021/04/14 05:53:13;;;;;;;;;;;-0.60;99.90;;;;;;5041150;28;20462;-71
2021/04/14 05:55:39;;;;;;;;;;;-0.60;99.90;;;;;;5015498;28;19913;-70
2021/04/14 05:58:04;;;;;;;;;;;-0.50;99.90;;;;;;5018374;28;20007;-72
2021/04/14 06:00:30;;;;;;;;;;;-0.40;99.90;;;;;;5029617;28;20385;-70
2021/04/14 06:02:56;;;;;;;;;;;-0.40;99.90;;;;;;5038058;28;19967;-69
2021/04/14 06:05:22;;;;;;;;;;;-0.30;99.90;;;;;;5033720;28;19909;-70
2021/04/14 06:07:48;;;;;;;;;;;-0.40;99.90;;;;;;5034117;28;19960;-70
2021/04/14 06:10:14;;;;;;;;;;;-0.40;99.90;;;;;;5034988;28;19920;-70
2021/04/14 06:12:40;;;;;;;;;;;-0.40;99.90;;;;;;5035336;28;19932;-70
2021/04/14 06:15:07;;;;;;;;;;;-0.30;99.90;;;;;;5035325;28;19905;-72
2021/04/14 06:17:33;;;;;;;;;;;-0.30;99.90;;;;;;5035083;28;19909;-72
2021/04/14 06:19:59;;;;;;;;;;;-0.20;99.90;;;;;;5035201;28;19913;-69
2021/04/14 06:22:24;;;;;;;;;;;-0.20;99.90;;;;;;5035319;28;19905;-70
2021/04/14 06:24:50;;;;;;;;;;;-0.20;99.90;;;;;;5034276;28;19905;-70
2021/04/14 06:27:28;;;;;;;;;;;-0.20;99.90;;;;;;5034772;28;19913;-70
2021/04/14 06:29:54;;;;;;;;;;;-0.10;99.90;;;;;;5034637;28;19912;-73
2021/04/14 06:32:19;;;;;;;;;;;-0.20;99.90;;;;;;5035764;28;20042;-73
2021/04/14 06:34:45;;;;;;;;;;;-0.10;99.90;;;;;;5034901;28;19909;-71
2021/04/14 06:37:11;;;;;;;;;;;0.00;99.90;;;;;;5037182;28;19905;-71
2021/04/14 06:39:38;;;;;;;;;;;0.00;99.90;;;;;;5054596;28;19915;-73
2021/04/14 06:42:14;;;;;;;;;;;0.10;99.90;;;;;;5029687;28;20364;-72
2021/04/14 06:45:06;;;;;;;;;;;0.20;99.90;;;;;;5013948;28;19909;-72
2021/04/14 06:47:46;;;;;;;;;;;0.40;99.90;;;;;;5032832;28;19911;-73
2021/04/14 06:50:18;;;;;;;;;;;0.40;99.90;;;;;;5034505;28;19909;-72
2021/04/14 06:52:50;;;;;;;;;;;0.50;99.90;;;;;;5047626;28;19904;-73
2021/04/14 06:55:18;;;;;;;;;;;0.60;99.90;;;;;;5052627;28;19909;-72
2021/04/14 06:57:47;;;;;;;;;;;0.70;99.90;;;;;;5063158;28;19920;-72
2021/04/14 07:00:31;;;;;;;;;;;0.80;99.90;;;;;;5063809;28;19908;-73
2021/04/14 07:03:03;;;;;;;;;;;0.80;99.90;;;;;;5059651;28;20374;-72
2021/04/14 07:05:39;;;;;;;;;;;0.80;99.90;;;;;;5047022;28;20336;-73
2021/04/14 07:08:28;;;;;;;;;;;0.90;99.90;;;;;;5015936;28;19916;-73
2021/04/14 07:10:55;;;;;;;;;;;1.00;99.90;;;;;;5018679;28;19917;-72
2021/04/14 07:13:20;;;;;;;;;;;1.00;99.90;;;;;;5017191;28;19928;-72
2021/04/14 07:15:48;;;;;;;;;;;1.10;99.90;;;;;;5016777;28;20371;-71
2021/04/14 07:18:24;;;;;;;;;;;1.30;99.90;;;;;;5016736;28;19920;-72
2021/04/14 07:20:53;;;;;;;;;;;1.50;99.90;;;;;;5016571;28;19905;-72
2021/04/14 07:23:26;;;;;;;;;;;1.60;99.90;;;;;;5014857;28;20008;-71
2021/04/14 07:26:09;;;;;;;;;;;1.80;99.90;;;;;;5014944;28;20383;-76
2021/04/14 07:28:51;;;;;;;;;;;2.10;99.90;;;;;;5033862;28;19909;-73
2021/04/14 07:31:17;;;;;;;;;;;2.30;99.90;;;;;;5034911;28;20240;-73
2021/04/14 07:33:48;;;;;;;;;;;2.70;99.90;;;;;;5037597;28;19952;-74
2021/04/14 07:36:19;;;;;;;;;;;2.90;99.90;;;;;;5042762;28;19950;-75
2021/04/14 07:38:57;;;;;;;;;;;3.00;99.90;;;;;;5040592;28;19916;-75
2021/04/14 07:41:34;;;;;;;;;;;3.00;99.90;;;;;;5042034;28;19912;-74
2021/04/14 07:44:18;;;;;;;;;;;3.20;99.90;;;;;;5052562;28;19915;-74
2021/04/14 07:46:47;;;;;;;;;;;3.50;99.90;;;;;;5057532;28;19908;-73
2021/04/14 07:49:14;;;;;;;;;;;3.70;99.90;;;;;;5054071;28;20448;-72
2021/04/14 07:51:40;;;;;;;;;;;3.80;99.90;;;;;;5057244;28;19908;-74
2021/04/14 07:54:14;;;;;;;;;;;3.90;99.90;;;;;;5053648;28;19915;-73
2021/04/14 07:56:41;;;;;;;;;;;4.30;99.90;;;;;;5036703;28;19909;-74
2021/04/14 07:59:08;;;;;;;;;;;4.50;99.90;;;;;;5034768;28;19939;-74
2021/04/14 08:01:35;;;;;;;;;;;5.00;99.90;;;;;;5014796;28;19955;-73
2021/04/14 08:04:08;;;;;;;;;;;5.40;99.90;;;;;;5018627;28;19968;-73
2021/04/14 08:06:34;;;;;;;;;;;5.50;99.90;;;;;;5034851;28;19909;-73
2021/04/14 08:09:08;;;;;;;;;;;5.90;99.90;;;;;;5033004;28;19917;-73
2021/04/14 08:11:35;;;;;;;;;;;6.10;99.90;;;;;;5033821;28;19905;-73
2021/04/14 08:14:09;;;;;;;;;;;6.60;99.90;;;;;;5032957;28;19905;-73
2021/04/14 08:16:36;;;;;;;;;;;6.50;99.90;;;;;;5033579;28;19905;-73
2021/04/14 08:19:07;;;;;;;;;;;6.70;99.90;;;;;;5033659;28;20011;-74
2021/04/14 08:21:35;;;;;;;;;;;7.10;99.90;;;;;;5036758;28;19908;-73
2021/04/14 08:24:03;;;;;;;;;;;7.70;99.90;;;;;;5055939;28;20472;-74
2021/04/14 08:26:30;;;;;;;;;;;7.80;99.90;;;;;;5057604;28;20007;-74
2021/04/14 08:29:05;;;;;;;;;;;7.90;99.90;;;;;;5056015;28;20295;-73
2021/04/14 08:31:36;;;;;;;;;;;8.20;99.90;;;;;;5052630;28;19912;-74
2021/04/14 08:34:15;;;;;;;;;;;8.60;99.90;;;;;;5052870;28;19940;-72
2021/04/14 08:37:01;;;;;;;;;;;8.60;99.80;;;;;;5015357;28;19963;-74
2021/04/14 08:39:36;;;;;;;;;;;8.40;99.90;;;;;;5014015;28;19909;-74
2021/04/14 08:42:09;;;;;;;;;;;9.10;99.90;;;;;;5012526;28;19987;-75
2021/04/14 08:44:36;;;;;;;;;;;9.60;98.40;;;;;;5014105;28;20058;-73
2021/04/14 08:47:13;;;;;;;;;;;9.90;96.40;;;;;;5013310;28;19912;-71
2021/04/14 08:49:39;;;;;;;;;;;9.90;96.00;;;;;;5012873;28;19905;-75
2021/04/14 08:52:05;;;;;;;;;;;10.20;95.10;;;;;;5013011;28;19905;-73
2021/04/14 08:54:32;;;;;;;;;;;10.60;93.40;;;;;;5015356;28;19952;-78
2021/04/14 08:56:59;;;;;;;;;;;10.50;93.50;;;;;;5013680;28;19937;-72
2021/04/14 08:59:25;;;;;;;;;;;10.20;91.80;;;;;;5012873;28;19917;-72
2021/04/14 09:01:52;;;;;;;;;;;10.50;90.30;;;;;;5013672;28;20487;-72
2021/04/14 09:04:18;;;;;;;;;;;10.50;89.70;;;;;;5013872;28;19913;-70
2021/04/14 09:06:44;;;;;;;;;;;10.80;91.50;;;;;;5032291;28;19905;-70
2021/04/14 09:09:15;;;;;;;;;;;11.30;89.30;;;;;;5031500;28;19920;-70
2021/04/14 09:11:43;;;;;;;;;;;11.10;81.50;;;;;;5032668;28;19912;-70
2021/04/14 09:14:22;;;;;;;;;;;11.40;85.90;;;;;;5031910;28;20294;-71
2021/04/14 09:16:52;;;;;;;;;;;11.50;80.50;;;;;;5031923;28;20366;-73
2021/04/14 09:19:22;;;;;;;;;;;11.50;76.20;;;;;;5032139;28;19917;-72
2021/04/14 09:21:57;;;;;;;;;;;11.10;77.50;;;;;;5030749;28;19909;-71
2021/04/14 09:24:28;;;;;;;;;;;10.70;77.60;;;;;;5031729;28;20363;-71
2021/04/14 09:26:55;;;;;;;;;;;11.00;77.60;;;;;;5031698;28;19920;-69
2021/04/14 09:29:20;;;;;;;;;;;11.10;76.40;;;;;;5030285;28;19905;-70
2021/04/14 09:31:51;;;;;;;;;;;11.20;79.50;;;;;;5030723;28;20382;-71
2021/04/14 09:34:31;;;;;;;;;;;11.60;77.00;;;;;;5030756;28;19905;-72
2021/04/14 09:38:51;;;;;;;5.50;2.30;;;11.80;74.30;;;;;;5087244;28;20373;-73
2021/04/14 09:41:25;;;;;;;5.40;2.08;;;12.40;74.20;;;;;;5066709;28;20029;-72
2021/04/14 09:44:11;;;;;;;4.43;2.67;;;13.30;68.60;;;;;;5067935;28;20029;-73
2021/04/14 09:46:54;;;;;;;6.93;2.60;;;14.20;69.50;;;;;;5067945;28;20364;-73
2021/04/14 09:49:36;;;;;;;4.22;2.55;;;14.60;65.70;;;;;;5069553;28;20031;-73
2021/04/14 09:52:22;;;;;;;5.28;2.58;;;15.00;65.50;;;;;;5068042;28;20029;-74
2021/04/14 09:54:52;;;;;;;6.45;1.95;;;15.00;62.00;;;;;;5067356;28;20017;-73
2021/04/14 09:57:24;;;;;;;4.53;2.00;;;13.90;60.80;;;;;;5069270;28;20032;-72
2021/04/14 09:59:50;;;;;;;4.35;2.13;;;13.50;65.00;;;;;;5068724;28;20058;-72
2021/04/14 10:02:19;;;;;;;2.63;2.00;;;12.70;65.30;;;;;;5068371;28;20025;-72
2021/04/14 10:04:49;;;;;;;5.68;2.58;;;12.00;65.10;;;;;;5066082;28;20032;-72
2021/04/14 10:07:28;;;;;;;5.07;2.30;;;12.40;65.40;;;;;;5068089;28;20704;-73
2021/04/14 10:10:26;;;;;;;3.88;2.10;;;13.20;63.10;;;;;;5067566;28;20029;-73
2021/04/14 10:12:53;;;;;;;6.85;3.88;;;12.10;66.80;;;;;;5034023;28;20056;-73
2021/04/14 10:15:33;;;;;;;32.72;19.00;;;12.70;64.20;;;;;;5068574;28;20025;-72
2021/04/14 10:18:17;;;;;;;5.25;3.25;;;12.00;62.80;;;;;;5067737;28;20025;-72
2021/04/14 10:20:43;;;;;;;5.88;2.67;;;11.60;64.40;;;;;;5070056;28;20744;-73
2021/04/14 10:23:12;;;;;;;6.53;2.85;;;11.20;67.20;;;;;;5067724;28;20029;-73
2021/04/14 10:25:40;;;;;;;12.32;5.60;;;10.80;71.10;;;;;;5065324;28;20044;-73
2021/04/14 10:28:21;;;;;;;5.10;3.08;;;11.10;68.40;;;;;;5067778;28;20036;-72
2021/04/14 10:31:09;;;;;;;5.80;2.75;;;10.90;69.30;;;;;;5067590;28;20126;-72
2021/04/14 10:33:40;;;;;;;5.13;3.00;;;10.60;69.60;;;;;;5066968;28;20037;-72
2021/04/14 10:36:19;;;;;;;4.13;2.45;;;10.50;69.20;;;;;;5051980;28;20029;-73
2021/04/14 10:38:45;;;;;;;5.13;2.55;;;9.50;70.50;;;;;;5067534;28;20025;-72
2021/04/14 10:41:30;;;;;;;2.45;1.83;;;8.80;72.50;;;;;;5084921;28;20103;-71
2021/04/14 10:43:57;;;;;;;4.15;2.25;;;8.60;73.80;;;;;;5087366;28;20066;-72
2021/04/14 10:46:31;;;;;;;4.53;2.25;;;8.80;73.40;;;;;;5089992;28;20025;-71
2021/04/14 10:49:31;;;;;;;4.10;2.03;;;8.90;72.10;;;;;;5091251;28;20028;-70
2021/04/14 10:52:03;;;;;;;5.57;2.25;;;9.40;70.00;;;;;;5032190;28;20047;-70
2021/04/14 10:54:31;;;;;;;5.22;2.08;;;9.30;70.80;;;;;;5073330;28;20024;-73
2021/04/14 10:57:29;;;;;;;5.63;2.35;;;9.80;69.80;;;;;;5074420;28;20090;-72
2021/04/14 11:00:17;;;;;;;4.82;2.22;;;10.40;68.10;;;;;;5073496;28;20062;-72
2021/04/14 11:02:46;;;;;;;5.50;2.15;;;10.10;67.30;;;;;;5075767;28;20115;-71
2021/04/14 11:05:15;;;;;;;6.03;1.75;;;10.30;67.20;;;;;;5077814;28;20024;-71
2021/04/14 11:07:43;;;;;;;7.45;2.53;;;11.00;68.00;;;;;;5073777;28;20029;-73
2021/04/14 11:10:12;;;;;;;8.55;2.40;;;10.50;67.90;;;;;;5073477;28;20025;-71
2021/04/14 11:12:44;;;;;;;3.92;2.00;;;11.00;81.20;;;;;;5054922;28;20047;-71
2021/04/14 11:15:14;;;;;;;5.07;1.95;;;11.40;76.70;;;;;;5073721;28;20052;-70
2021/04/14 11:17:40;;;;;;;5.88;2.00;;;12.30;77.10;;;;;;5073595;28;20032;-72
2021/04/14 11:20:14;;;;;;;6.75;2.42;;;11.70;66.90;;;;;;5073217;28;20355;-73
2021/04/14 11:22:52;;;;;;;4.82;2.03;;;11.20;68.20;;;;;;5072130;28;20033;-73
2021/04/14 11:25:35;;;;;;;6.10;1.90;;;10.10;67.20;;;;;;5060356;28;20013;-74
2021/04/14 11:28:06;;;;;;;29.02;4.45;;;9.70;69.80;;;;;;5067406;28;20107;-72
2021/04/14 11:30:45;;;;;;;18.80;3.70;;;9.00;70.60;;;;;;5057470;28;20567;-72
2021/04/14 11:33:13;;;;;;;7.40;2.15;;;8.90;71.10;;;;;;5069412;28;20035;-73
2021/04/14 11:35:42;;;;;;;3.17;1.50;;;8.60;70.60;;;;;;5070598;28;20028;-73
2021/04/14 11:38:29;;;;;;;2.97;1.83;;;8.30;70.00;;;;;;5069771;28;20067;-72
2021/04/14 11:40:57;;;;;;;6.93;1.90;;;8.70;72.70;;;;;;5051849;28;20033;-71
2021/04/14 11:43:24;;;;;;;3.00;1.88;;;8.60;71.30;;;;;;5069912;28;20028;-72
2021/04/14 11:46:00;;;;;;;6.82;1.92;;;8.60;73.40;;;;;;5071233;28;20021;-73
2021/04/14 11:48:38;;;;;;;5.57;1.80;;;8.70;72.40;;;;;;5068717;28;20012;-72
2021/04/14 11:51:20;;;;;;;5.38;2.30;;;8.90;74.50;;;;;;5071149;28;20032;-73
2021/04/14 11:53:52;;;;;;;8.32;2.50;;;8.70;76.50;;;;;;5067441;28;20013;-70
2021/04/14 11:56:34;;;;;;;5.45;3.17;;;8.50;79.00;;;;;;5070756;28;20051;-71
2021/04/14 11:59:00;;;;;;;5.03;2.65;;;8.20;80.30;;;;;;5070327;28;20542;-71
2021/04/14 12:01:29;;;;;;;11.30;3.08;;;8.30;81.90;;;;;;5070028;28;20029;-71
2021/04/14 12:03:55;;;;;;;5.35;2.78;;;8.00;82.40;;;;;;5068731;28;20323;-72
2021/04/14 12:06:22;;;;;;;3.00;2.70;;;7.90;83.40;;;;;;5072621;28;20025;-72
2021/04/14 12:08:48;;;;;;;6.75;3.00;;;7.80;84.20;;;;;;5073218;28;20464;-71
2021/04/14 12:11:23;;;;;;;4.55;2.47;;;7.90;83.90;;;;;;5073173;28;20386;-73
2021/04/14 12:13:49;;;;;;;8.20;2.80;;;8.30;84.10;;;;;;5055455;28;20028;-72
2021/04/14 12:16:15;;;;;;;5.80;2.67;;;8.70;81.90;;;;;;5074001;28;20485;-74
2021/04/14 12:18:42;;;;;;;4.25;2.65;;;9.00;81.10;;;;;;5072772;28;20060;-72
2021/04/14 12:21:09;;;;;;;5.07;2.50;;;9.20;78.60;;;;;;5072233;28;20467;-72
2021/04/14 12:23:35;;;;;;;3.90;2.65;;;9.10;77.20;;;;;;5072709;28;20020;-72
2021/04/14 12:26:01;;;;;;;6.03;2.58;;;8.80;76.70;;;;;;5070446;28;20043;-74
2021/04/14 12:28:27;;;;;;;5.97;2.88;;;8.80;77.50;;;;;;5074273;28;20433;-73
2021/04/14 12:30:53;;;;;;;2.90;2.45;;;8.90;78.00;;;;;;5072154;28;20028;-72
2021/04/14 12:33:18;;;;;;;4.97;2.70;;;8.80;76.20;;;;;;5069963;28;20047;-70
2021/04/14 12:35:44;;;;;;;4.55;2.40;;;7.90;77.30;;;;;;5071988;28;20024;-72
2021/04/14 12:38:10;;;;;;;3.70;2.65;;;8.00;78.70;;;;;;5071847;28;20513;-71
2021/04/14 12:40:36;;;;;;;2.90;2.53;;;8.40;79.30;;;;;;5071769;28;20017;-72
2021/04/14 12:43:02;;;;;;;4.82;2.97;;;8.70;78.80;;;;;;5070686;28;20044;-71
2021/04/14 12:45:38;;;;;;;3.28;2.20;;;8.70;76.70;;;;;;5071147;28;20485;-72
2021/04/14 12:48:14;;;;;;;2.90;2.00;;;8.80;76.90;;;;;;5071320;28;20031;-71
2021/04/14 12:50:40;;;;;;;4.40;2.17;;;9.10;75.50;;;;;;5072461;28;20151;-72
2021/04/14 12:53:08;;;;;;;6.40;2.33;;;9.30;75.00;;;;;;5071385;28;20107;-72
2021/04/14 12:55:48;;;;;;;3.53;2.47;;;9.50;76.20;;;;;;5072290;28;20099;-72
2021/04/14 12:58:26;;;;;;;3.63;2.13;;;9.50;73.90;;;;;;5071132;28;20380;-72
2021/04/14 13:00:52;;;;;;;3.33;1.90;;;9.70;80.40;;;;;;5071971;28;20040;-70
2021/04/14 13:03:34;;;;;;;3.15;2.00;;;10.60;70.80;;;;;;5070996;28;20125;-72
2021/04/14 13:06:06;;;;;;;3.88;2.05;;;11.30;72.50;;;;;;5071630;28;20021;-72
2021/04/14 13:08:39;;;;;;;2.88;2.08;;;11.20;66.60;;;;;;5070042;28;20499;-72
2021/04/14 13:11:33;;;;;;;2.58;2.38;;;10.50;65.30;;;;;;5085224;28;20061;-70
2021/04/14 13:13:59;;;;;;;3.75;2.67;;;10.40;65.80;;;;;;5068505;28;20039;-71
2021/04/14 13:16:38;;;;;;;3.22;1.63;;;11.00;68.30;;;;;;5071120;28;20032;-71
2021/04/14 13:19:04;;;;;;;5.45;2.22;;;11.10;65.40;;;;;;5072470;28;20028;-71
2021/04/14 13:21:31;;;;;;;3.28;2.00;;;11.00;63.30;;;;;;5071349;28;20825;-71
2021/04/14 13:24:13;;;;;;;2.67;1.70;;;10.90;66.00;;;;;;5071187;28;20028;-71
2021/04/14 13:26:49;;;;;;;2.03;1.88;;;10.90;66.00;;;;;;5071432;28;20025;-70
2021/04/14 13:29:24;;;;;;;3.75;1.80;;;11.20;65.60;;;;;;5079368;28;21848;-70
2021/04/14 13:31:54;;;;;;;5.53;2.75;;;11.50;65.70;;;;;;5079007;28;20024;-70
2021/04/14 13:34:27;;;;;;;4.28;2.60;;;10.90;70.50;;;;;;5072595;28;20382;-71
2021/04/14 13:37:02;;;;;;;4.22;2.60;;;10.40;77.10;;;;;;5060454;28;20035;-70
2021/04/14 13:39:35;;;;;;;7.50;2.20;;;9.20;83.00;;;;;;5071899;28;20039;-72
2021/04/14 13:42:16;;;;;;;5.00;2.50;;;9.00;85.90;;;;;;5068545;28;20470;-72
2021/04/14 13:45:12;;;;;;;3.20;2.42;;;8.60;89.80;;;;;;5077383;28;20032;-72
2021/04/14 13:48:10;;;;;;;3.42;2.33;;;8.60;90.20;;;;;;5075642;28;20505;-71
2021/04/14 13:50:52;;;;;;;4.50;2.42;;;8.40;90.60;;;;;;5033005;28;20040;-72
2021/04/14 13:53:21;;;;;;;4.82;2.80;;;8.50;90.60;;;;;;5050888;28;20028;-72
2021/04/14 13:55:47;;;;;;;6.97;3.30;;;8.20;90.70;;;;;;5050658;28;20036;-72
2021/04/14 13:58:54;;;;;;;7.03;2.95;;;7.90;91.20;;;;;;5050845;28;20399;-71
2021/04/14 14:01:23;;;;;;;14.52;4.93;;;7.90;91.30;;;;;;5027595;28;20391;-71
2021/04/14 14:03:53;;;;;;;10.23;2.85;;;8.00;91.50;;;;;;5058218;28;20021;-72
2021/04/14 14:06:56;;;;;;;7.85;2.90;;;8.00;91.60;;;;;;5071136;28;20029;-73
2021/04/14 14:10:08;;;;;;;6.15;2.75;;;8.50;91.30;;;;;;5071495;28;20020;-71